sensor_id;sensor_type;location;lat;lon;timestamp;P1;durP1;ratioP1;P2;durP2;ratioP2
33840;SDS011;20142;28.494;-16.312;2022-09-17T00:02:13;21.40;;;3.72;;
33840;SDS011;20142;28.494;-16.312;2022-09-17T00:07:15;21.98;;;3.45;;
33840;SDS011;20142;28.494;-16.312;2022-09-17T00:12:17;14.98;;;3.17;;
33840;SDS011;20142;28.494;-16.312;2022-09-17T00:17:19;14.38;;;3.22;;
33840;SDS011;20142;28.494;-16.312;2022-09-17T00:22:21;18.90;;;3.33;;
33840;SDS011;20142;28.494;-16.312;2022-09-17T00:27:23;14.52;;;2.92;;
33840;SDS011;20142;28.494;-16.312;2022-09-17T00:32:25;14.98;;;3.22;;
33840;SDS011;20142;28.494;-16.312;2022-09-17T00:37:28;14.43;;;3.40;;
33840;SDS011;20142;28.494;-16.312;2022-09-17T00:42:30;14.00;;;3.00;;
33840;SDS011;20142;28.494;-16.312;2022-09-17T00:47:32;19.05;;;3.63;;
33840;SDS011;20142;28.494;-16.312;2022-09-17T00:52:41;16.20;;;3.63;;
33840;SDS011;20142;28.494;-16.312;2022-09-17T00:57:45;19.27;;;2.95;;
33840;SDS011;20142;28.494;-16.312;2022-09-17T01:02:48;17.63;;;3.30;;
33840;SDS011;20142;28.494;-16.312;2022-09-17T01:40:27;18.23;;;3.45;;
33840;SDS011;20142;28.494;-16.312;2022-09-17T01:45:34;17.90;;;3.33;;
33840;SDS011;20142;28.494;-16.312;2022-09-17T01:50:41;15.15;;;3.88;;
33840;SDS011;20142;28.494;-16.312;2022-09-17T01:56:08;18.38;;;4.20;;
33840;SDS011;20142;28.494;-16.312;2022-09-17T02:01:11;22.60;;;3.78;;
33840;SDS011;20142;28.494;-16.312;2022-09-17T02:06:16;16.20;;;3.58;;
33840;SDS011;20142;28.494;-16.312;2022-09-17T02:11:21;16.13;;;3.03;;
33840;SDS011;20142;28.494;-16.312;2022-09-17T02:21:30;23.10;;;4.55;;
33840;SDS011;20142;28.494;-16.312;2022-09-17T02:26:34;18.92;;;4.55;;
33840;SDS011;20142;28.494;-16.312;2022-09-17T02:31:41;24.75;;;4.57;;
33840;SDS011;20142;28.494;-16.312;2022-09-17T02:36:43;22.38;;;3.72;;
33840;SDS011;20142;28.494;-16.312;2022-09-17T02:41:46;22.50;;;4.03;;
33840;SDS011;20142;28.494;-16.312;2022-09-17T03:08:31;25.60;;;4.18;;
33840;SDS011;20142;28.494;-16.312;2022-09-17T03:13:36;18.83;;;3.83;;
33840;SDS011;20142;28.494;-16.312;2022-09-17T03:18:39;22.88;;;3.75;;
33840;SDS011;20142;28.494;-16.312;2022-09-17T03:23:40;24.45;;;3.67;;
33840;SDS011;20142;28.494;-16.312;2022-09-17T03:28:43;23.55;;;3.83;;
33840;SDS011;20142;28.494;-16.312;2022-09-17T03:33:44;25.85;;;4.22;;
33840;SDS011;20142;28.494;-16.312;2022-09-17T03:38:53;21.13;;;4.45;;
33840;SDS011;20142;28.494;-16.312;2022-09-17T03:43:58;23.90;;;4.28;;
33840;SDS011;20142;28.494;-16.312;2022-09-17T03:49:00;23.77;;;4.47;;
33840;SDS011;20142;28.494;-16.312;2022-09-17T03:54:02;19.40;;;3.78;;
33840;SDS011;20142;28.494;-16.312;2022-09-17T03:59:04;23.55;;;4.55;;
33840;SDS011;20142;28.494;-16.312;2022-09-17T04:04:06;23.13;;;4.38;;
33840;SDS011;20142;28.494;-16.312;2022-09-17T04:09:08;26.23;;;4.00;;
33840;SDS011;20142;28.494;-16.312;2022-09-17T04:14:10;24.55;;;4.18;;
33840;SDS011;20142;28.494;-16.312;2022-09-17T04:19:12;31.02;;;5.20;;
33840;SDS011;20142;28.494;-16.312;2022-09-17T04:24:14;32.97;;;6.13;;
33840;SDS011;20142;28.494;-16.312;2022-09-17T04:29:16;27.98;;;5.35;;
33840;SDS011;20142;28.494;-16.312;2022-09-17T04:34:18;26.95;;;5.15;;
33840;SDS011;20142;28.494;-16.312;2022-09-17T04:39:20;26.42;;;4.97;;
33840;SDS011;20142;28.494;-16.312;2022-09-17T04:44:21;32.03;;;5.72;;
33840;SDS011;20142;28.494;-16.312;2022-09-17T04:49:23;26.92;;;5.80;;
33840;SDS011;20142;28.494;-16.312;2022-09-17T04:54:29;36.90;;;6.10;;
33840;SDS011;20142;28.494;-16.312;2022-09-17T04:59:31;25.52;;;5.60;;
33840;SDS011;20142;28.494;-16.312;2022-09-17T05:04:33;26.55;;;5.03;;
33840;SDS011;20142;28.494;-16.312;2022-09-17T05:09:34;31.77;;;5.57;;
33840;SDS011;20142;28.494;-16.312;2022-09-17T05:14:36;27.65;;;5.15;;
33840;SDS011;20142;28.494;-16.312;2022-09-17T05:19:38;28.95;;;5.38;;
33840;SDS011;20142;28.494;-16.312;2022-09-17T05:24:40;26.95;;;5.40;;
33840;SDS011;20142;28.494;-16.312;2022-09-17T05:29:42;28.75;;;5.35;;
33840;SDS011;20142;28.494;-16.312;2022-09-17T05:34:44;27.55;;;5.47;;
33840;SDS011;20142;28.494;-16.312;2022-09-17T05:39:46;26.33;;;5.03;;
33840;SDS011;20142;28.494;-16.312;2022-09-17T05:44:48;33.85;;;5.47;;
33840;SDS011;20142;28.494;-16.312;2022-09-17T05:49:50;36.22;;;5.93;;
33840;SDS011;20142;28.494;-16.312;2022-09-17T05:54:52;31.73;;;5.93;;
33840;SDS011;20142;28.494;-16.312;2022-09-17T05:59:54;32.40;;;5.95;;
33840;SDS011;20142;28.494;-16.312;2022-09-17T06:04:56;33.10;;;5.68;;
33840;SDS011;20142;28.494;-16.312;2022-09-17T06:10:01;31.52;;;5.32;;
33840;SDS011;20142;28.494;-16.312;2022-09-17T06:15:04;36.58;;;5.25;;
33840;SDS011;20142;28.494;-16.312;2022-09-17T06:20:07;31.63;;;5.25;;
33840;SDS011;20142;28.494;-16.312;2022-09-17T06:25:09;33.40;;;6.10;;
33840;SDS011;20142;28.494;-16.312;2022-09-17T06:30:11;39.40;;;6.15;;
33840;SDS011;20142;28.494;-16.312;2022-09-17T06:35:13;34.38;;;6.20;;
33840;SDS011;20142;28.494;-16.312;2022-09-17T06:40:15;39.00;;;6.25;;
33840;SDS011;20142;28.494;-16.312;2022-09-17T06:45:17;39.67;;;6.47;;
33840;SDS011;20142;28.494;-16.312;2022-09-17T06:50:19;37.72;;;6.45;;
33840;SDS011;20142;28.494;-16.312;2022-09-17T06:55:21;33.63;;;5.93;;
33840;SDS011;20142;28.494;-16.312;2022-09-17T07:00:23;46.13;;;5.97;;
33840;SDS011;20142;28.494;-16.312;2022-09-17T07:05:27;27.83;;;5.50;;
33840;SDS011;20142;28.494;-16.312;2022-09-17T07:10:30;39.67;;;6.70;;
33840;SDS011;20142;28.494;-16.312;2022-09-17T07:15:32;35.53;;;5.88;;
33840;SDS011;20142;28.494;-16.312;2022-09-17T07:20:34;34.10;;;5.40;;
33840;SDS011;20142;28.494;-16.312;2022-09-17T07:25:36;30.20;;;5.95;;
33840;SDS011;20142;28.494;-16.312;2022-09-17T07:30:37;40.95;;;6.07;;
33840;SDS011;20142;28.494;-16.312;2022-09-17T07:35:39;36.35;;;6.10;;
33840;SDS011;20142;28.494;-16.312;2022-09-17T07:40:41;43.03;;;6.80;;
33840;SDS011;20142;28.494;-16.312;2022-09-17T07:45:43;31.45;;;6.03;;
33840;SDS011;20142;28.494;-16.312;2022-09-17T07:50:45;30.77;;;5.95;;
33840;SDS011;20142;28.494;-16.312;2022-09-17T07:55:51;33.10;;;5.97;;
33840;SDS011;20142;28.494;-16.312;2022-09-17T08:06:07;28.70;;;5.43;;
33840;SDS011;20142;28.494;-16.312;2022-09-17T08:16:13;32.97;;;5.07;;
33840;SDS011;20142;28.494;-16.312;2022-09-17T08:21:16;37.08;;;5.35;;
33840;SDS011;20142;28.494;-16.312;2022-09-17T08:26:19;31.75;;;5.75;;
33840;SDS011;20142;28.494;-16.312;2022-09-17T08:31:23;36.17;;;5.82;;
33840;SDS011;20142;28.494;-16.312;2022-09-17T08:36:30;30.77;;;5.07;;
33840;SDS011;20142;28.494;-16.312;2022-09-17T08:46:50;35.78;;;5.43;;
33840;SDS011;20142;28.494;-16.312;2022-09-17T09:08:33;34.47;;;5.10;;
33840;SDS011;20142;28.494;-16.312;2022-09-17T09:13:48;27.55;;;5.18;;
33840;SDS011;20142;28.494;-16.312;2022-09-17T09:18:53;30.60;;;4.97;;
33840;SDS011;20142;28.494;-16.312;2022-09-17T09:34:38;39.65;;;6.28;;
33840;SDS011;20142;28.494;-16.312;2022-09-17T09:39:40;35.72;;;5.95;;
33840;SDS011;20142;28.494;-16.312;2022-09-17T09:44:42;37.53;;;5.68;;
33840;SDS011;20142;28.494;-16.312;2022-09-17T10:00:35;32.95;;;6.03;;
33840;SDS011;20142;28.494;-16.312;2022-09-17T10:05:39;35.33;;;5.50;;
33840;SDS011;20142;28.494;-16.312;2022-09-17T10:16:26;28.25;;;4.85;;
33840;SDS011;20142;28.494;-16.312;2022-09-17T10:21:31;35.38;;;4.80;;
33840;SDS011;20142;28.494;-16.312;2022-09-17T10:26:34;37.85;;;5.35;;
33840;SDS011;20142;28.494;-16.312;2022-09-17T10:31:50;34.50;;;6.20;;
33840;SDS011;20142;28.494;-16.312;2022-09-17T10:36:53;35.58;;;5.05;;
33840;SDS011;20142;28.494;-16.312;2022-09-17T10:42:12;34.58;;;5.70;;
33840;SDS011;20142;28.494;-16.312;2022-09-17T10:47:18;37.20;;;6.00;;
33840;SDS011;20142;28.494;-16.312;2022-09-17T10:52:29;33.83;;;6.28;;
33840;SDS011;20142;28.494;-16.312;2022-09-17T11:34:27;26.42;;;5.32;;
33840;SDS011;20142;28.494;-16.312;2022-09-17T11:44:56;43.33;;;5.78;;
33840;SDS011;20142;28.494;-16.312;2022-09-17T12:01:04;37.47;;;5.43;;
33840;SDS011;20142;28.494;-16.312;2022-09-17T12:06:13;34.85;;;5.38;;
33840;SDS011;20142;28.494;-16.312;2022-09-17T12:11:22;42.38;;;5.90;;
33840;SDS011;20142;28.494;-16.312;2022-09-17T12:16:37;36.15;;;6.10;;
33840;SDS011;20142;28.494;-16.312;2022-09-17T12:21:45;40.40;;;6.43;;
33840;SDS011;20142;28.494;-16.312;2022-09-17T12:27:29;33.63;;;5.10;;
33840;SDS011;20142;28.494;-16.312;2022-09-17T12:43:07;29.08;;;5.35;;
33840;SDS011;20142;28.494;-16.312;2022-09-17T12:53:41;33.40;;;6.28;;
33840;SDS011;20142;28.494;-16.312;2022-09-17T13:14:40;32.55;;;5.53;;
33840;SDS011;20142;28.494;-16.312;2022-09-17T13:20:15;38.67;;;6.10;;
33840;SDS011;20142;28.494;-16.312;2022-09-17T13:25:22;38.40;;;5.95;;
33840;SDS011;20142;28.494;-16.312;2022-09-17T13:30:26;33.42;;;5.35;;
33840;SDS011;20142;28.494;-16.312;2022-09-17T13:35:58;32.28;;;6.30;;
33840;SDS011;20142;28.494;-16.312;2022-09-17T13:41:19;38.13;;;5.60;;
33840;SDS011;20142;28.494;-16.312;2022-09-17T13:46:24;34.35;;;5.28;;
33840;SDS011;20142;28.494;-16.312;2022-09-17T14:02:25;32.92;;;5.35;;
33840;SDS011;20142;28.494;-16.312;2022-09-17T14:17:50;31.88;;;5.55;;
33840;SDS011;20142;28.494;-16.312;2022-09-17T14:22:55;37.30;;;5.85;;
33840;SDS011;20142;28.494;-16.312;2022-09-17T14:27:59;30.20;;;5.47;;
33840;SDS011;20142;28.494;-16.312;2022-09-17T14:38:16;33.13;;;6.00;;
33840;SDS011;20142;28.494;-16.312;2022-09-17T14:49:26;29.55;;;5.40;;
33840;SDS011;20142;28.494;-16.312;2022-09-17T14:54:30;26.77;;;5.13;;
33840;SDS011;20142;28.494;-16.312;2022-09-17T14:59:37;37.85;;;5.78;;
33840;SDS011;20142;28.494;-16.312;2022-09-17T15:04:54;27.60;;;5.53;;
33840;SDS011;20142;28.494;-16.312;2022-09-17T15:10:06;33.30;;;5.47;;
33840;SDS011;20142;28.494;-16.312;2022-09-17T15:15:19;33.45;;;5.72;;
33840;SDS011;20142;28.494;-16.312;2022-09-17T15:20:23;39.15;;;5.18;;
33840;SDS011;20142;28.494;-16.312;2022-09-17T15:25:30;34.85;;;5.20;;
33840;SDS011;20142;28.494;-16.312;2022-09-17T15:30:33;33.22;;;5.10;;
33840;SDS011;20142;28.494;-16.312;2022-09-17T15:35:35;28.08;;;4.57;;
33840;SDS011;20142;28.494;-16.312;2022-09-17T15:40:37;28.83;;;5.00;;
33840;SDS011;20142;28.494;-16.312;2022-09-17T15:45:40;31.65;;;5.55;;
33840;SDS011;20142;28.494;-16.312;2022-09-17T15:50:49;25.35;;;5.25;;
33840;SDS011;20142;28.494;-16.312;2022-09-17T16:11:20;36.70;;;5.80;;
33840;SDS011;20142;28.494;-16.312;2022-09-17T16:16:24;26.83;;;6.07;;
33840;SDS011;20142;28.494;-16.312;2022-09-17T16:21:32;31.42;;;5.95;;
33840;SDS011;20142;28.494;-16.312;2022-09-17T16:26:35;31.85;;;5.45;;
33840;SDS011;20142;28.494;-16.312;2022-09-17T16:31:37;26.27;;;4.50;;
33840;SDS011;20142;28.494;-16.312;2022-09-17T16:36:39;35.53;;;5.60;;
33840;SDS011;20142;28.494;-16.312;2022-09-17T16:41:41;29.05;;;4.93;;
33840;SDS011;20142;28.494;-16.312;2022-09-17T16:46:43;28.42;;;5.40;;
33840;SDS011;20142;28.494;-16.312;2022-09-17T16:51:45;30.48;;;5.40;;
33840;SDS011;20142;28.494;-16.312;2022-09-17T16:56:47;34.53;;;5.35;;
33840;SDS011;20142;28.494;-16.312;2022-09-17T17:01:49;28.02;;;5.28;;
33840;SDS011;20142;28.494;-16.312;2022-09-17T17:06:51;28.92;;;5.43;;
33840;SDS011;20142;28.494;-16.312;2022-09-17T17:11:53;43.92;;;5.82;;
33840;SDS011;20142;28.494;-16.312;2022-09-17T17:16:55;36.90;;;5.32;;
33840;SDS011;20142;28.494;-16.312;2022-09-17T17:21:57;32.03;;;5.60;;
33840;SDS011;20142;28.494;-16.312;2022-09-17T17:26:59;36.67;;;6.75;;
33840;SDS011;20142;28.494;-16.312;2022-09-17T17:32:03;33.97;;;5.88;;
33840;SDS011;20142;28.494;-16.312;2022-09-17T17:37:05;40.35;;;5.80;;
33840;SDS011;20142;28.494;-16.312;2022-09-17T17:42:07;33.35;;;5.63;;
33840;SDS011;20142;28.494;-16.312;2022-09-17T17:47:09;41.60;;;6.00;;
33840;SDS011;20142;28.494;-16.312;2022-09-17T17:52:11;34.72;;;5.88;;
33840;SDS011;20142;28.494;-16.312;2022-09-17T17:57:13;43.13;;;6.65;;
33840;SDS011;20142;28.494;-16.312;2022-09-17T18:02:14;40.95;;;5.93;;
33840;SDS011;20142;28.494;-16.312;2022-09-17T18:07:17;34.53;;;5.85;;
33840;SDS011;20142;28.494;-16.312;2022-09-17T18:12:18;47.88;;;6.05;;
33840;SDS011;20142;28.494;-16.312;2022-09-17T18:17:20;36.83;;;6.00;;
33840;SDS011;20142;28.494;-16.312;2022-09-17T18:22:22;32.40;;;5.63;;
33840;SDS011;20142;28.494;-16.312;2022-09-17T18:27:24;32.40;;;5.38;;
33840;SDS011;20142;28.494;-16.312;2022-09-17T18:32:26;30.88;;;6.40;;
33840;SDS011;20142;28.494;-16.312;2022-09-17T18:37:28;33.47;;;5.85;;
33840;SDS011;20142;28.494;-16.312;2022-09-17T18:42:30;39.00;;;6.30;;
33840;SDS011;20142;28.494;-16.312;2022-09-17T18:47:32;29.77;;;5.22;;
33840;SDS011;20142;28.494;-16.312;2022-09-17T18:52:34;35.92;;;6.10;;
33840;SDS011;20142;28.494;-16.312;2022-09-17T18:57:36;33.83;;;5.18;;
33840;SDS011;20142;28.494;-16.312;2022-09-17T19:02:38;35.03;;;6.10;;
33840;SDS011;20142;28.494;-16.312;2022-09-17T19:07:44;42.17;;;6.15;;
33840;SDS011;20142;28.494;-16.312;2022-09-17T19:12:46;37.10;;;5.68;;
33840;SDS011;20142;28.494;-16.312;2022-09-17T19:17:49;28.30;;;6.13;;
